sensor_id;sensor_type;location;lat;lon;timestamp;P1;durP1;ratioP1;P2;durP2;ratioP2
17842;SDS011;69286;48.222;16.332;2023-04-25T00:00:49;2.40;;;2.20;;
17842;SDS011;69286;48.222;16.332;2023-04-25T00:03:17;5.67;;;2.43;;
17842;SDS011;69286;48.222;16.332;2023-04-25T00:05:46;2.20;;;2.10;;
17842;SDS011;69286;48.222;16.332;2023-04-25T00:08:12;2.53;;;2.33;;
17842;SDS011;69286;48.222;16.332;2023-04-25T00:10:39;2.67;;;2.30;;
17842;SDS011;69286;48.222;16.332;2023-04-25T00:13:06;5.27;;;2.60;;
17842;SDS011;69286;48.222;16.332;2023-04-25T00:15:34;3.60;;;2.60;;
17842;SDS011;69286;48.222;16.332;2023-04-25T00:18:03;4.33;;;2.90;;
17842;SDS011;69286;48.222;16.332;2023-04-25T00:20:30;2.97;;;2.70;;
17842;SDS011;69286;48.222;16.332;2023-04-25T00:22:59;2.40;;;2.30;;
17842;SDS011;69286;48.222;16.332;2023-04-25T00:25:26;2.50;;;2.30;;
17842;SDS011;69286;48.222;16.332;2023-04-25T00:27:52;4.87;;;2.87;;
17842;SDS011;69286;48.222;16.332;2023-04-25T00:30:19;3.13;;;2.63;;
17842;SDS011;69286;48.222;16.332;2023-04-25T00:32:46;2.70;;;2.50;;
17842;SDS011;69286;48.222;16.332;2023-04-25T00:35:13;4.63;;;2.53;;
17842;SDS011;69286;48.222;16.332;2023-04-25T00:37:40;2.60;;;2.40;;
17842;SDS011;69286;48.222;16.332;2023-04-25T00:40:09;3.83;;;3.17;;
17842;SDS011;69286;48.222;16.332;2023-04-25T00:42:36;2.73;;;2.53;;
17842;SDS011;69286;48.222;16.332;2023-04-25T00:45:04;2.63;;;2.43;;
17842;SDS011;69286;48.222;16.332;2023-04-25T00:47:33;2.50;;;2.30;;
17842;SDS011;69286;48.222;16.332;2023-04-25T00:50:01;2.97;;;2.70;;
17842;SDS011;69286;48.222;16.332;2023-04-25T00:52:29;3.47;;;2.90;;
17842;SDS011;69286;48.222;16.332;2023-04-25T00:54:56;2.50;;;2.30;;
17842;SDS011;69286;48.222;16.332;2023-04-25T00:57:24;3.27;;;2.70;;
17842;SDS011;69286;48.222;16.332;2023-04-25T00:59:51;6.20;;;3.17;;
17842;SDS011;69286;48.222;16.332;2023-04-25T01:02:20;3.40;;;2.90;;
17842;SDS011;69286;48.222;16.332;2023-04-25T01:04:47;5.57;;;2.83;;
17842;SDS011;69286;48.222;16.332;2023-04-25T01:07:14;2.97;;;2.73;;
17842;SDS011;69286;48.222;16.332;2023-04-25T01:09:42;2.90;;;2.70;;
17842;SDS011;69286;48.222;16.332;2023-04-25T01:12:09;3.43;;;2.80;;
17842;SDS011;69286;48.222;16.332;2023-04-25T01:14:37;3.17;;;2.87;;
17842;SDS011;69286;48.222;16.332;2023-04-25T01:17:05;5.20;;;2.90;;
17842;SDS011;69286;48.222;16.332;2023-04-25T01:19:32;3.80;;;2.60;;
17842;SDS011;69286;48.222;16.332;2023-04-25T01:22:02;3.40;;;2.83;;
17842;SDS011;69286;48.222;16.332;2023-04-25T01:24:29;2.90;;;2.57;;
17842;SDS011;69286;48.222;16.332;2023-04-25T01:26:57;3.80;;;2.93;;
17842;SDS011;69286;48.222;16.332;2023-04-25T01:29:25;11.77;;;6.23;;
17842;SDS011;69286;48.222;16.332;2023-04-25T01:31:53;4.93;;;3.60;;
17842;SDS011;69286;48.222;16.332;2023-04-25T01:34:21;5.13;;;3.40;;
17842;SDS011;69286;48.222;16.332;2023-04-25T01:36:48;2.90;;;2.60;;
17842;SDS011;69286;48.222;16.332;2023-04-25T01:39:17;5.33;;;2.77;;
17842;SDS011;69286;48.222;16.332;2023-04-25T01:41:44;3.20;;;2.70;;
17842;SDS011;69286;48.222;16.332;2023-04-25T01:44:12;3.43;;;2.80;;
17842;SDS011;69286;48.222;16.332;2023-04-25T01:46:38;4.63;;;3.10;;
17842;SDS011;69286;48.222;16.332;2023-04-25T01:49:06;4.60;;;2.90;;
17842;SDS011;69286;48.222;16.332;2023-04-25T01:51:33;4.13;;;2.60;;
17842;SDS011;69286;48.222;16.332;2023-04-25T01:54:00;2.87;;;2.67;;
17842;SDS011;69286;48.222;16.332;2023-04-25T01:56:31;4.97;;;2.70;;
17842;SDS011;69286;48.222;16.332;2023-04-25T01:58:58;3.23;;;2.83;;
17842;SDS011;69286;48.222;16.332;2023-04-25T02:01:25;5.40;;;2.83;;
17842;SDS011;69286;48.222;16.332;2023-04-25T02:03:52;4.43;;;2.90;;
17842;SDS011;69286;48.222;16.332;2023-04-25T02:06:20;3.13;;;2.83;;
17842;SDS011;69286;48.222;16.332;2023-04-25T02:08:47;3.40;;;3.10;;
17842;SDS011;69286;48.222;16.332;2023-04-25T02:11:14;3.57;;;3.03;;
17842;SDS011;69286;48.222;16.332;2023-04-25T02:13:42;4.53;;;3.67;;
17842;SDS011;69286;48.222;16.332;2023-04-25T02:16:09;3.00;;;2.80;;
17842;SDS011;69286;48.222;16.332;2023-04-25T02:18:36;5.67;;;2.77;;
17842;SDS011;69286;48.222;16.332;2023-04-25T02:21:04;4.67;;;2.77;;
17842;SDS011;69286;48.222;16.332;2023-04-25T02:23:31;3.90;;;2.73;;
17842;SDS011;69286;48.222;16.332;2023-04-25T02:25:58;3.03;;;2.70;;
17842;SDS011;69286;48.222;16.332;2023-04-25T02:28:25;3.93;;;3.13;;
17842;SDS011;69286;48.222;16.332;2023-04-25T02:30:53;3.77;;;3.00;;
17842;SDS011;69286;48.222;16.332;2023-04-25T02:33:20;3.50;;;3.20;;
17842;SDS011;69286;48.222;16.332;2023-04-25T02:35:47;3.50;;;3.20;;
17842;SDS011;69286;48.222;16.332;2023-04-25T02:38:14;3.63;;;2.97;;
17842;SDS011;69286;48.222;16.332;2023-04-25T02:40:41;3.03;;;2.83;;
17842;SDS011;69286;48.222;16.332;2023-04-25T02:43:08;4.87;;;3.07;;
17842;SDS011;69286;48.222;16.332;2023-04-25T02:45:35;5.00;;;3.27;;
17842;SDS011;69286;48.222;16.332;2023-04-25T02:48:04;3.23;;;2.67;;
17842;SDS011;69286;48.222;16.332;2023-04-25T02:50:31;5.33;;;3.23;;
17842;SDS011;69286;48.222;16.332;2023-04-25T02:52:58;4.87;;;3.00;;
17842;SDS011;69286;48.222;16.332;2023-04-25T02:55:25;5.50;;;3.00;;
17842;SDS011;69286;48.222;16.332;2023-04-25T02:57:52;3.90;;;3.37;;
17842;SDS011;69286;48.222;16.332;2023-04-25T03:00:20;4.53;;;3.50;;
17842;SDS011;69286;48.222;16.332;2023-04-25T03:02:48;4.77;;;3.30;;
17842;SDS011;69286;48.222;16.332;2023-04-25T03:05:17;4.40;;;3.57;;
17842;SDS011;69286;48.222;16.332;2023-04-25T03:07:44;5.10;;;3.50;;
17842;SDS011;69286;48.222;16.332;2023-04-25T03:10:11;4.37;;;3.20;;
17842;SDS011;69286;48.222;16.332;2023-04-25T03:12:38;4.23;;;3.20;;
17842;SDS011;69286;48.222;16.332;2023-04-25T03:15:06;3.50;;;3.10;;
17842;SDS011;69286;48.222;16.332;2023-04-25T03:17:33;4.93;;;3.27;;
17842;SDS011;69286;48.222;16.332;2023-04-25T03:20:00;4.83;;;3.40;;
17842;SDS011;69286;48.222;16.332;2023-04-25T03:22:30;3.80;;;3.50;;
17842;SDS011;69286;48.222;16.332;2023-04-25T03:24:57;3.53;;;3.23;;
17842;SDS011;69286;48.222;16.332;2023-04-25T03:27:24;8.50;;;3.70;;
17842;SDS011;69286;48.222;16.332;2023-04-25T03:29:51;3.80;;;3.30;;
17842;SDS011;69286;48.222;16.332;2023-04-25T03:32:18;4.00;;;3.70;;
17842;SDS011;69286;48.222;16.332;2023-04-25T03:34:45;5.20;;;3.60;;
17842;SDS011;69286;48.222;16.332;2023-04-25T03:37:12;4.50;;;3.63;;
17842;SDS011;69286;48.222;16.332;2023-04-25T03:39:40;5.73;;;3.60;;
17842;SDS011;69286;48.222;16.332;2023-04-25T03:42:07;5.87;;;4.23;;
17842;SDS011;69286;48.222;16.332;2023-04-25T03:44:34;4.07;;;3.40;;
17842;SDS011;69286;48.222;16.332;2023-04-25T03:47:01;3.57;;;3.27;;
17842;SDS011;69286;48.222;16.332;2023-04-25T03:49:28;5.27;;;3.20;;
17842;SDS011;69286;48.222;16.332;2023-04-25T03:51:55;4.53;;;3.50;;
17842;SDS011;69286;48.222;16.332;2023-04-25T03:54:22;5.33;;;3.63;;
17842;SDS011;69286;48.222;16.332;2023-04-25T03:56:50;6.03;;;3.67;;
17842;SDS011;69286;48.222;16.332;2023-04-25T03:59:17;5.03;;;3.50;;
17842;SDS011;69286;48.222;16.332;2023-04-25T04:01:44;3.43;;;3.13;;
17842;SDS011;69286;48.222;16.332;2023-04-25T04:04:11;4.00;;;3.13;;
17842;SDS011;69286;48.222;16.332;2023-04-25T04:06:38;6.17;;;3.97;;
17842;SDS011;69286;48.222;16.332;2023-04-25T04:09:06;3.73;;;3.43;;
17842;SDS011;69286;48.222;16.332;2023-04-25T04:11:36;4.73;;;3.50;;
17842;SDS011;69286;48.222;16.332;2023-04-25T04:14:04;5.83;;;3.50;;
17842;SDS011;69286;48.222;16.332;2023-04-25T04:16:32;4.13;;;3.20;;
17842;SDS011;69286;48.222;16.332;2023-04-25T04:18:59;4.80;;;3.70;;
17842;SDS011;69286;48.222;16.332;2023-04-25T04:21:26;7.33;;;3.50;;
17842;SDS011;69286;48.222;16.332;2023-04-25T04:23:53;5.47;;;3.60;;
17842;SDS011;69286;48.222;16.332;2023-04-25T04:26:22;3.60;;;3.23;;
17842;SDS011;69286;48.222;16.332;2023-04-25T04:28:51;3.90;;;3.50;;
17842;SDS011;69286;48.222;16.332;2023-04-25T04:31:20;9.27;;;3.97;;
17842;SDS011;69286;48.222;16.332;2023-04-25T04:33:47;5.03;;;4.20;;
17842;SDS011;69286;48.222;16.332;2023-04-25T04:36:14;3.97;;;3.50;;
17842;SDS011;69286;48.222;16.332;2023-04-25T04:38:44;5.53;;;4.13;;
17842;SDS011;69286;48.222;16.332;2023-04-25T04:41:11;4.23;;;3.53;;
17842;SDS011;69286;48.222;16.332;2023-04-25T04:43:38;5.10;;;3.70;;
17842;SDS011;69286;48.222;16.332;2023-04-25T04:46:05;4.27;;;3.67;;
17842;SDS011;69286;48.222;16.332;2023-04-25T04:48:34;4.40;;;3.90;;
17842;SDS011;69286;48.222;16.332;2023-04-25T04:51:01;7.37;;;3.87;;
17842;SDS011;69286;48.222;16.332;2023-04-25T04:53:27;5.30;;;3.60;;
17842;SDS011;69286;48.222;16.332;2023-04-25T04:55:54;5.17;;;3.77;;
17842;SDS011;69286;48.222;16.332;2023-04-25T04:58:22;4.43;;;3.70;;
17842;SDS011;69286;48.222;16.332;2023-04-25T05:00:49;4.00;;;3.53;;
17842;SDS011;69286;48.222;16.332;2023-04-25T05:03:16;3.97;;;3.37;;
17842;SDS011;69286;48.222;16.332;2023-04-25T05:05:44;5.40;;;3.60;;
17842;SDS011;69286;48.222;16.332;2023-04-25T05:08:11;5.47;;;3.63;;
17842;SDS011;69286;48.222;16.332;2023-04-25T05:10:38;3.93;;;3.53;;
17842;SDS011;69286;48.222;16.332;2023-04-25T05:13:05;4.00;;;3.57;;
17842;SDS011;69286;48.222;16.332;2023-04-25T05:15:32;5.00;;;3.67;;
17842;SDS011;69286;48.222;16.332;2023-04-25T05:17:58;5.87;;;4.40;;
17842;SDS011;69286;48.222;16.332;2023-04-25T05:20:26;4.27;;;3.87;;
17842;SDS011;69286;48.222;16.332;2023-04-25T05:22:55;5.40;;;4.00;;
17842;SDS011;69286;48.222;16.332;2023-04-25T05:25:21;9.83;;;3.90;;
17842;SDS011;69286;48.222;16.332;2023-04-25T05:27:48;13.30;;;4.17;;
17842;SDS011;69286;48.222;16.332;2023-04-25T05:30:16;4.43;;;3.70;;
17842;SDS011;69286;48.222;16.332;2023-04-25T05:32:43;6.47;;;4.40;;
17842;SDS011;69286;48.222;16.332;2023-04-25T05:35:11;6.23;;;3.90;;
17842;SDS011;69286;48.222;16.332;2023-04-25T05:37:38;4.20;;;3.80;;
17842;SDS011;69286;48.222;16.332;2023-04-25T05:40:07;8.87;;;4.03;;
17842;SDS011;69286;48.222;16.332;2023-04-25T05:42:35;6.47;;;3.70;;
17842;SDS011;69286;48.222;16.332;2023-04-25T05:45:02;6.30;;;3.70;;
17842;SDS011;69286;48.222;16.332;2023-04-25T05:47:29;3.90;;;3.00;;
17842;SDS011;69286;48.222;16.332;2023-04-25T05:49:56;4.13;;;3.20;;
17842;SDS011;69286;48.222;16.332;2023-04-25T05:52:23;5.23;;;3.10;;
17842;SDS011;69286;48.222;16.332;2023-04-25T05:54:50;5.17;;;3.60;;
17842;SDS011;69286;48.222;16.332;2023-04-25T05:57:22;4.67;;;3.23;;
17842;SDS011;69286;48.222;16.332;2023-04-25T05:59:50;6.13;;;3.17;;
17842;SDS011;69286;48.222;16.332;2023-04-25T06:02:17;3.53;;;2.87;;
17842;SDS011;69286;48.222;16.332;2023-04-25T06:04:44;6.27;;;3.20;;
17842;SDS011;69286;48.222;16.332;2023-04-25T06:07:11;4.73;;;2.60;;
17842;SDS011;69286;48.222;16.332;2023-04-25T06:09:38;11.33;;;2.67;;
17842;SDS011;69286;48.222;16.332;2023-04-25T06:12:05;5.67;;;2.73;;
17842;SDS011;69286;48.222;16.332;2023-04-25T06:14:34;4.13;;;2.53;;
17842;SDS011;69286;48.222;16.332;2023-04-25T06:17:01;8.53;;;2.93;;
17842;SDS011;69286;48.222;16.332;2023-04-25T06:19:31;7.17;;;3.47;;
17842;SDS011;69286;48.222;16.332;2023-04-25T06:21:58;7.50;;;3.30;;
17842;SDS011;69286;48.222;16.332;2023-04-25T06:24:26;7.87;;;2.97;;
17842;SDS011;69286;48.222;16.332;2023-04-25T06:26:52;2.87;;;2.50;;
17842;SDS011;69286;48.222;16.332;2023-04-25T06:29:20;4.07;;;2.30;;
17842;SDS011;69286;48.222;16.332;2023-04-25T06:31:48;5.63;;;2.70;;
17842;SDS011;69286;48.222;16.332;2023-04-25T06:34:15;3.77;;;2.73;;
17842;SDS011;69286;48.222;16.332;2023-04-25T06:36:42;9.97;;;2.70;;
17842;SDS011;69286;48.222;16.332;2023-04-25T06:39:10;4.97;;;2.60;;
17842;SDS011;69286;48.222;16.332;2023-04-25T06:41:37;4.00;;;2.40;;
17842;SDS011;69286;48.222;16.332;2023-04-25T06:44:04;3.50;;;2.40;;
17842;SDS011;69286;48.222;16.332;2023-04-25T06:46:31;2.60;;;2.23;;
17842;SDS011;69286;48.222;16.332;2023-04-25T06:48:59;4.10;;;2.77;;
17842;SDS011;69286;48.222;16.332;2023-04-25T06:51:26;3.60;;;2.60;;
17842;SDS011;69286;48.222;16.332;2023-04-25T06:53:55;4.63;;;2.40;;
17842;SDS011;69286;48.222;16.332;2023-04-25T06:56:22;3.13;;;2.30;;
17842;SDS011;69286;48.222;16.332;2023-04-25T06:58:49;2.70;;;2.50;;
17842;SDS011;69286;48.222;16.332;2023-04-25T07:01:16;3.90;;;2.30;;
17842;SDS011;69286;48.222;16.332;2023-04-25T07:03:43;3.30;;;2.57;;
17842;SDS011;69286;48.222;16.332;2023-04-25T07:06:11;4.00;;;2.80;;
17842;SDS011;69286;48.222;16.332;2023-04-25T07:08:38;5.30;;;2.60;;
17842;SDS011;69286;48.222;16.332;2023-04-25T07:11:05;4.90;;;2.40;;
17842;SDS011;69286;48.222;16.332;2023-04-25T07:13:32;5.40;;;2.80;;
17842;SDS011;69286;48.222;16.332;2023-04-25T07:15:59;4.63;;;2.90;;
17842;SDS011;69286;48.222;16.332;2023-04-25T07:18:26;6.97;;;2.60;;
17842;SDS011;69286;48.222;16.332;2023-04-25T07:20:53;4.97;;;2.60;;
17842;SDS011;69286;48.222;16.332;2023-04-25T07:23:24;4.00;;;2.23;;
17842;SDS011;69286;48.222;16.332;2023-04-25T07:25:51;2.50;;;2.27;;
17842;SDS011;69286;48.222;16.332;2023-04-25T07:28:18;2.67;;;2.47;;
17842;SDS011;69286;48.222;16.332;2023-04-25T07:30:45;5.70;;;3.53;;
17842;SDS011;69286;48.222;16.332;2023-04-25T07:33:12;6.50;;;4.53;;
17842;SDS011;69286;48.222;16.332;2023-04-25T07:35:39;3.50;;;2.57;;
17842;SDS011;69286;48.222;16.332;2023-04-25T07:38:06;6.53;;;2.77;;
17842;SDS011;69286;48.222;16.332;2023-04-25T07:40:36;9.83;;;2.27;;
17842;SDS011;69286;48.222;16.332;2023-04-25T07:43:03;4.10;;;2.50;;
17842;SDS011;69286;48.222;16.332;2023-04-25T07:45:30;5.07;;;3.50;;
17842;SDS011;69286;48.222;16.332;2023-04-25T07:47:57;4.37;;;2.93;;
17842;SDS011;69286;48.222;16.332;2023-04-25T07:50:25;6.10;;;3.40;;
17842;SDS011;69286;48.222;16.332;2023-04-25T07:52:51;5.30;;;2.50;;
17842;SDS011;69286;48.222;16.332;2023-04-25T07:55:19;5.43;;;3.20;;
17842;SDS011;69286;48.222;16.332;2023-04-25T07:57:47;4.47;;;2.77;;
17842;SDS011;69286;48.222;16.332;2023-04-25T08:00:14;5.63;;;3.30;;
17842;SDS011;69286;48.222;16.332;2023-04-25T08:02:42;3.23;;;2.53;;
17842;SDS011;69286;48.222;16.332;2023-04-25T08:05:08;2.87;;;2.43;;
17842;SDS011;69286;48.222;16.332;2023-04-25T08:07:39;2.97;;;2.53;;
17842;SDS011;69286;48.222;16.332;2023-04-25T08:10:07;3.50;;;2.50;;
17842;SDS011;69286;48.222;16.332;2023-04-25T08:12:34;6.43;;;2.70;;
17842;SDS011;69286;48.222;16.332;2023-04-25T08:15:03;4.23;;;2.90;;
17842;SDS011;69286;48.222;16.332;2023-04-25T08:17:31;4.40;;;2.80;;
17842;SDS011;69286;48.222;16.332;2023-04-25T08:19:58;3.40;;;2.60;;
17842;SDS011;69286;48.222;16.332;2023-04-25T08:22:25;3.37;;;2.13;;
17842;SDS011;69286;48.222;16.332;2023-04-25T08:24:52;3.57;;;2.53;;
17842;SDS011;69286;48.222;16.332;2023-04-25T08:27:19;3.47;;;2.63;;
17842;SDS011;69286;48.222;16.332;2023-04-25T08:29:47;3.97;;;2.50;;
17842;SDS011;69286;48.222;16.332;2023-04-25T08:32:15;4.20;;;2.40;;
17842;SDS011;69286;48.222;16.332;2023-04-25T08:34:42;2.90;;;2.30;;
17842;SDS011;69286;48.222;16.332;2023-04-25T08:37:09;2.23;;;2.07;;
17842;SDS011;69286;48.222;16.332;2023-04-25T08:39:36;3.70;;;2.93;;
17842;SDS011;69286;48.222;16.332;2023-04-25T08:42:05;3.77;;;2.53;;
17842;SDS011;69286;48.222;16.332;2023-04-25T08:44:33;4.22;;;2.78;;
17842;SDS011;69286;48.222;16.332;2023-04-25T08:47:01;2.50;;;2.22;;
17842;SDS011;69286;48.222;16.332;2023-04-25T08:49:32;2.97;;;1.95;;
17842;SDS011;69286;48.222;16.332;2023-04-25T08:52:00;4.85;;;2.28;;
17842;SDS011;69286;48.222;16.332;2023-04-25T08:54:29;1.98;;;1.88;;
17842;SDS011;69286;48.222;16.332;2023-04-25T08:56:57;4.60;;;2.30;;
17842;SDS011;69286;48.222;16.332;2023-04-25T08:59:29;4.65;;;2.10;;
17842;SDS011;69286;48.222;16.332;2023-04-25T09:01:56;2.67;;;2.03;;
17842;SDS011;69286;48.222;16.332;2023-04-25T09:04:23;6.28;;;2.60;;
17842;SDS011;69286;48.222;16.332;2023-04-25T09:06:52;2.13;;;1.93;;
17842;SDS011;69286;48.222;16.332;2023-04-25T09:09:19;2.40;;;2.20;;
17842;SDS011;69286;48.222;16.332;2023-04-25T09:11:46;7.63;;;2.33;;
17842;SDS011;69286;48.222;16.332;2023-04-25T09:14:13;4.90;;;2.60;;
17842;SDS011;69286;48.222;16.332;2023-04-25T09:16:57;2.40;;;2.20;;
17842;SDS011;69286;48.222;16.332;2023-04-25T09:19:26;4.00;;;2.57;;
17842;SDS011;69286;48.222;16.332;2023-04-25T09:21:56;3.70;;;2.90;;
17842;SDS011;69286;48.222;16.332;2023-04-25T09:24:34;4.17;;;2.70;;
17842;SDS011;69286;48.222;16.332;2023-04-25T09:27:03;3.77;;;2.90;;
17842;SDS011;69286;48.222;16.332;2023-04-25T09:29:31;5.53;;;2.77;;
17842;SDS011;69286;48.222;16.332;2023-04-25T09:32:10;4.13;;;2.73;;
17842;SDS011;69286;48.222;16.332;2023-04-25T09:34:42;5.90;;;3.37;;
17842;SDS011;69286;48.222;16.332;2023-04-25T09:37:16;7.03;;;3.90;;
17842;SDS011;69286;48.222;16.332;2023-04-25T09:39:45;4.67;;;3.53;;
17842;SDS011;69286;48.222;16.332;2023-04-25T09:42:12;4.87;;;3.40;;
17842;SDS011;69286;48.222;16.332;2023-04-25T09:44:43;3.83;;;3.47;;
17842;SDS011;69286;48.222;16.332;2023-04-25T09:47:11;7.07;;;3.87;;
17842;SDS011;69286;48.222;16.332;2023-04-25T09:49:40;5.00;;;2.50;;
17842;SDS011;69286;48.222;16.332;2023-04-25T09:52:08;3.43;;;2.30;;
17842;SDS011;69286;48.222;16.332;2023-04-25T09:54:41;2.73;;;1.80;;
17842;SDS011;69286;48.222;16.332;2023-04-25T09:57:10;5.17;;;2.87;;
17842;SDS011;69286;48.222;16.332;2023-04-25T09:59:38;3.00;;;2.20;;
17842;SDS011;69286;48.222;16.332;2023-04-25T10:02:10;1.87;;;1.73;;
17842;SDS011;69286;48.222;16.332;2023-04-25T10:04:38;8.23;;;3.17;;
17842;SDS011;69286;48.222;16.332;2023-04-25T10:07:06;2.07;;;1.97;;
17842;SDS011;69286;48.222;16.332;2023-04-25T10:09:35;1.50;;;1.40;;
17842;SDS011;69286;48.222;16.332;2023-04-25T10:12:06;2.33;;;1.70;;
17842;SDS011;69286;48.222;16.332;2023-04-25T10:14:34;2.00;;;1.60;;
17842;SDS011;69286;48.222;16.332;2023-04-25T10:17:01;3.27;;;1.50;;
17842;SDS011;69286;48.222;16.332;2023-04-25T10:19:29;1.40;;;1.30;;
17842;SDS011;69286;48.222;16.332;2023-04-25T10:21:58;1.37;;;1.27;;
17842;SDS011;69286;48.222;16.332;2023-04-25T10:24:33;1.77;;;1.67;;
17842;SDS011;69286;48.222;16.332;2023-04-25T10:27:01;2.63;;;1.93;;
17842;SDS011;69286;48.222;16.332;2023-04-25T10:29:30;3.47;;;1.93;;
17842;SDS011;69286;48.222;16.332;2023-04-25T10:31:57;2.50;;;1.90;;
17842;SDS011;69286;48.222;16.332;2023-04-25T10:34:24;2.60;;;1.60;;
17842;SDS011;69286;48.222;16.332;2023-04-25T10:37:04;2.23;;;1.67;;
17842;SDS011;69286;48.222;16.332;2023-04-25T10:39:32;2.23;;;2.00;;
17842;SDS011;69286;48.222;16.332;2023-04-25T10:41:59;4.37;;;3.10;;
17842;SDS011;69286;48.222;16.332;2023-04-25T10:44:30;2.37;;;1.90;;
17842;SDS011;69286;48.222;16.332;2023-04-25T10:46:58;2.07;;;1.47;;
17842;SDS011;69286;48.222;16.332;2023-04-25T10:49:30;1.90;;;1.80;;
17842;SDS011;69286;48.222;16.332;2023-04-25T10:54:46;2.07;;;1.50;;
17842;SDS011;69286;48.222;16.332;2023-04-25T10:57:31;2.23;;;1.53;;
17842;SDS011;69286;48.222;16.332;2023-04-25T11:00:06;2.67;;;1.53;;
17842;SDS011;69286;48.222;16.332;2023-04-25T11:02:42;2.70;;;2.00;;
17842;SDS011;69286;48.222;16.332;2023-04-25T11:05:10;2.83;;;1.80;;
17842;SDS011;69286;48.222;16.332;2023-04-25T11:07:44;2.07;;;1.87;;
17842;SDS011;69286;48.222;16.332;2023-04-25T11:10:16;3.10;;;2.10;;
17842;SDS011;69286;48.222;16.332;2023-04-25T11:12:47;2.83;;;2.00;;
17842;SDS011;69286;48.222;16.332;2023-04-25T11:15:16;5.23;;;2.20;;
17842;SDS011;69286;48.222;16.332;2023-04-25T11:17:43;2.40;;;2.10;;
17842;SDS011;69286;48.222;16.332;2023-04-25T11:20:11;2.27;;;1.93;;
17842;SDS011;69286;48.222;16.332;2023-04-25T11:22:40;2.00;;;1.77;;
17842;SDS011;69286;48.222;16.332;2023-04-25T11:25:10;1.73;;;1.60;;
17842;SDS011;69286;48.222;16.332;2023-04-25T11:27:48;1.83;;;1.70;;
17842;SDS011;69286;48.222;16.332;2023-04-25T11:30:18;2.77;;;1.60;;
17842;SDS011;69286;48.222;16.332;2023-04-25T11:32:46;3.30;;;1.77;;
17842;SDS011;69286;48.222;16.332;2023-04-25T11:35:13;5.87;;;1.67;;
17842;SDS011;69286;48.222;16.332;2023-04-25T11:37:41;3.87;;;1.80;;
17842;SDS011;69286;48.222;16.332;2023-04-25T11:40:09;2.30;;;1.80;;
17842;SDS011;69286;48.222;16.332;2023-04-25T11:42:37;2.00;;;1.90;;
17842;SDS011;69286;48.222;16.332;2023-04-25T11:45:05;1.93;;;1.60;;
17842;SDS011;69286;48.222;16.332;2023-04-25T11:47:34;4.97;;;2.43;;
17842;SDS011;69286;48.222;16.332;2023-04-25T11:50:02;2.83;;;2.60;;
17842;SDS011;69286;48.222;16.332;2023-04-25T11:52:37;2.30;;;1.80;;
17842;SDS011;69286;48.222;16.332;2023-04-25T11:55:06;3.60;;;2.10;;
17842;SDS011;69286;48.222;16.332;2023-04-25T11:57:34;6.43;;;1.90;;
17842;SDS011;69286;48.222;16.332;2023-04-25T12:00:05;2.07;;;1.80;;
17842;SDS011;69286;48.222;16.332;2023-04-25T12:02:36;1.50;;;1.40;;
17842;SDS011;69286;48.222;16.332;2023-04-25T12:05:06;2.73;;;1.70;;
17842;SDS011;69286;48.222;16.332;2023-04-25T12:07:34;8.33;;;1.80;;
17842;SDS011;69286;48.222;16.332;2023-04-25T12:10:06;2.50;;;1.67;;
17842;SDS011;69286;48.222;16.332;2023-04-25T12:12:34;5.07;;;1.57;;
17842;SDS011;69286;48.222;16.332;2023-04-25T12:15:10;2.33;;;1.60;;
17842;SDS011;69286;48.222;16.332;2023-04-25T12:17:41;1.57;;;1.47;;
17842;SDS011;69286;48.222;16.332;2023-04-25T12:20:12;1.70;;;1.40;;
17842;SDS011;69286;48.222;16.332;2023-04-25T12:22:40;1.57;;;1.47;;
17842;SDS011;69286;48.222;16.332;2023-04-25T12:25:10;3.20;;;2.10;;
17842;SDS011;69286;48.222;16.332;2023-04-25T12:27:37;8.27;;;3.70;;
17842;SDS011;69286;48.222;16.332;2023-04-25T12:30:07;1.63;;;1.50;;
17842;SDS011;69286;48.222;16.332;2023-04-25T12:32:35;2.07;;;1.80;;
17842;SDS011;69286;48.222;16.332;2023-04-25T12:35:05;1.70;;;1.60;;
17842;SDS011;69286;48.222;16.332;2023-04-25T12:37:32;1.43;;;1.33;;
17842;SDS011;69286;48.222;16.332;2023-04-25T12:39:59;1.60;;;1.50;;
17842;SDS011;69286;48.222;16.332;2023-04-25T12:42:27;1.60;;;1.50;;
17842;SDS011;69286;48.222;16.332;2023-04-25T12:44:54;4.93;;;1.47;;
17842;SDS011;69286;48.222;16.332;2023-04-25T12:47:20;1.87;;;1.77;;
17842;SDS011;69286;48.222;16.332;2023-04-25T12:49:47;2.10;;;1.90;;
17842;SDS011;69286;48.222;16.332;2023-04-25T12:52:16;2.83;;;1.80;;
17842;SDS011;69286;48.222;16.332;2023-04-25T12:54:43;1.60;;;1.50;;
17842;SDS011;69286;48.222;16.332;2023-04-25T12:57:10;3.00;;;1.60;;
17842;SDS011;69286;48.222;16.332;2023-04-25T12:59:37;1.47;;;1.37;;
17842;SDS011;69286;48.222;16.332;2023-04-25T13:02:04;1.77;;;1.53;;
17842;SDS011;69286;48.222;16.332;2023-04-25T13:04:31;1.97;;;1.30;;
17842;SDS011;69286;48.222;16.332;2023-04-25T13:06:58;1.93;;;1.30;;
17842;SDS011;69286;48.222;16.332;2023-04-25T13:09:27;1.40;;;1.30;;
17842;SDS011;69286;48.222;16.332;2023-04-25T13:11:56;1.50;;;1.40;;
17842;SDS011;69286;48.222;16.332;2023-04-25T13:14:24;1.60;;;1.50;;
17842;SDS011;69286;48.222;16.332;2023-04-25T13:16:51;3.13;;;1.70;;
17842;SDS011;69286;48.222;16.332;2023-04-25T13:19:19;4.07;;;1.53;;
17842;SDS011;69286;48.222;16.332;2023-04-25T13:21:46;1.43;;;1.20;;
17842;SDS011;69286;48.222;16.332;2023-04-25T13:24:13;1.93;;;1.30;;
17842;SDS011;69286;48.222;16.332;2023-04-25T13:26:43;3.77;;;1.47;;
17842;SDS011;69286;48.222;16.332;2023-04-25T13:29:10;2.07;;;1.40;;
17842;SDS011;69286;48.222;16.332;2023-04-25T13:31:37;3.87;;;1.60;;
17842;SDS011;69286;48.222;16.332;2023-04-25T13:34:04;2.43;;;1.20;;
17842;SDS011;69286;48.222;16.332;2023-04-25T13:36:31;1.80;;;1.07;;
17842;SDS011;69286;48.222;16.332;2023-04-25T13:38:58;1.30;;;1.20;;
17842;SDS011;69286;48.222;16.332;2023-04-25T13:41:25;1.37;;;1.20;;
17842;SDS011;69286;48.222;16.332;2023-04-25T13:43:54;1.70;;;1.50;;
17842;SDS011;69286;48.222;16.332;2023-04-25T13:46:21;1.27;;;1.13;;
17842;SDS011;69286;48.222;16.332;2023-04-25T13:48:48;1.60;;;1.50;;
17842;SDS011;69286;48.222;16.332;2023-04-25T13:51:15;4.13;;;1.33;;
17842;SDS011;69286;48.222;16.332;2023-04-25T13:53:43;2.20;;;1.93;;
17842;SDS011;69286;48.222;16.332;2023-04-25T13:56:12;3.63;;;1.63;;
17842;SDS011;69286;48.222;16.332;2023-04-25T13:58:40;3.53;;;1.47;;
17842;SDS011;69286;48.222;16.332;2023-04-25T14:01:08;2.63;;;1.60;;
17842;SDS011;69286;48.222;16.332;2023-04-25T14:03:35;1.50;;;1.40;;
17842;SDS011;69286;48.222;16.332;2023-04-25T14:06:02;1.87;;;1.30;;
17842;SDS011;69286;48.222;16.332;2023-04-25T14:08:30;3.67;;;1.33;;
17842;SDS011;69286;48.222;16.332;2023-04-25T14:10:57;2.10;;;1.57;;
17842;SDS011;69286;48.222;16.332;2023-04-25T14:13:24;1.47;;;1.37;;
17842;SDS011;69286;48.222;16.332;2023-04-25T14:15:51;1.53;;;1.37;;
17842;SDS011;69286;48.222;16.332;2023-04-25T14:18:19;1.63;;;1.43;;
17842;SDS011;69286;48.222;16.332;2023-04-25T14:20:46;2.03;;;1.63;;
17842;SDS011;69286;48.222;16.332;2023-04-25T14:23:13;1.23;;;1.20;;
17842;SDS011;69286;48.222;16.332;2023-04-25T14:25:40;1.50;;;1.40;;
17842;SDS011;69286;48.222;16.332;2023-04-25T14:28:08;1.57;;;1.30;;
17842;SDS011;69286;48.222;16.332;2023-04-25T14:30:36;4.60;;;1.37;;
17842;SDS011;69286;48.222;16.332;2023-04-25T14:33:03;1.57;;;1.47;;
17842;SDS011;69286;48.222;16.332;2023-04-25T14:35:31;1.47;;;1.37;;
17842;SDS011;69286;48.222;16.332;2023-04-25T14:37:58;2.83;;;1.50;;
17842;SDS011;69286;48.222;16.332;2023-04-25T14:40:25;2.00;;;1.27;;